createdAt,value
2024-01-24T00:14:29.349Z,9.30
2024-01-24T00:29:32.820Z,9.50
2024-01-24T00:44:36.943Z,9.70
2024-01-24T00:59:39.360Z,9.70
2024-01-24T01:14:42.252Z,9.90
2024-01-24T01:29:44.716Z,9.90
2024-01-24T01:44:47.845Z,10.10
2024-01-24T01:59:50.353Z,10.10
2024-01-24T02:14:52.806Z,10.30
2024-01-24T02:29:59.027Z,10.40
2024-01-24T02:45:01.521Z,10.50
2024-01-24T03:00:06.493Z,10.40
2024-01-24T03:15:09.351Z,10.50
2024-01-24T03:30:12.476Z,10.30
2024-01-24T03:45:15.078Z,10.20
2024-01-24T04:00:17.855Z,10.30
2024-01-24T04:15:20.377Z,10.20
2024-01-24T04:30:23.622Z,10.30
2024-01-24T04:45:26.440Z,10.30
2024-01-24T05:00:29.041Z,10.40
2024-01-24T05:15:31.769Z,10.40
2024-01-24T05:30:36.106Z,9.90
2024-01-24T05:45:39.714Z,9.90
2024-01-24T06:00:42.305Z,9.80
2024-01-24T06:15:45.410Z,9.70
2024-01-24T06:30:48.323Z,9.50
2024-01-24T06:45:50.876Z,9.60
2024-01-24T07:00:54.263Z,9.50
2024-01-24T07:15:57.651Z,9.30
2024-01-24T07:31:00.252Z,9.30
2024-01-24T07:46:03.264Z,9.10
2024-01-24T08:01:11.212Z,9.10
2024-01-24T08:16:13.982Z,9.10
2024-01-24T08:31:16.493Z,9.00
2024-01-24T08:46:19.299Z,9.10
2024-01-24T09:01:22.345Z,9.00
2024-01-24T09:16:27.597Z,8.90
2024-01-24T09:31:31.093Z,9.00
2024-01-24T09:46:37.601Z,9.20
2024-01-24T10:01:40.941Z,9.30
2024-01-24T10:16:43.878Z,9.20
2024-01-24T10:31:46.384Z,9.20
2024-01-24T10:46:51.631Z,9.10
2024-01-24T11:01:55.219Z,9.20
2024-01-24T11:17:00.307Z,9.30
2024-01-24T11:32:04.134Z,9.20
2024-01-24T11:47:08.494Z,9.40
2024-01-24T12:02:11.130Z,9.50
2024-01-24T12:17:13.798Z,9.30
2024-01-24T12:32:16.822Z,9.40
2024-01-24T12:47:19.632Z,9.80
2024-01-24T13:02:22.387Z,9.90
2024-01-24T13:17:25.130Z,10.00
2024-01-24T13:32:27.837Z,9.70
2024-01-24T13:47:30.401Z,9.90
2024-01-24T14:02:33.044Z,9.90
2024-01-24T14:17:35.808Z,9.70
2024-01-24T14:32:39.606Z,9.30
2024-01-24T14:47:42.765Z,9.40
2024-01-24T15:02:45.503Z,9.60
2024-01-24T15:17:50.626Z,9.70
2024-01-24T15:32:54.882Z,9.60
2024-01-24T15:47:57.786Z,9.30
2024-01-24T16:03:01.097Z,9.40
2024-01-24T16:18:05.071Z,9.20
2024-01-24T16:33:08.102Z,9.10
2024-01-24T16:48:10.846Z,9.10
2024-01-24T17:03:13.554Z,9.20
2024-01-24T17:18:16.497Z,9.10
2024-01-24T17:33:20.034Z,8.90
2024-01-24T17:48:22.984Z,8.80
2024-01-24T18:03:26.107Z,8.80
2024-01-24T18:18:29.088Z,8.80
2024-01-24T18:33:32.390Z,8.50
2024-01-24T18:48:35.218Z,8.60
2024-01-24T19:03:38.673Z,8.80
2024-01-24T19:18:46.264Z,8.60
2024-01-24T19:33:51.996Z,8.60
2024-01-24T19:48:55.720Z,8.70
2024-01-24T20:03:59.280Z,8.40
2024-01-24T20:19:02.624Z,8.20
2024-01-24T20:34:05.908Z,8.10
2024-01-24T20:49:09.069Z,8.00
2024-01-24T21:04:12.138Z,8.10
2024-01-24T21:19:18.006Z,8.00
2024-01-24T21:34:21.738Z,7.90
2024-01-24T21:49:24.465Z,7.80
2024-01-24T22:04:27.341Z,7.80
2024-01-24T22:19:30.161Z,7.90
2024-01-24T22:34:32.984Z,7.90
2024-01-24T22:49:35.730Z,7.80
2024-01-24T23:04:38.758Z,7.90
2024-01-24T23:19:41.719Z,8.00
2024-01-24T23:34:45.448Z,7.80
2024-01-24T23:49:48.615Z,9.20
